createdAt,value
2022-09-10T00:10:21.056Z,26.58
2022-09-10T00:17:27.378Z,29.85
2022-09-10T00:20:17.996Z,31.02
2022-09-10T00:22:53.277Z,28.25
2022-09-10T00:25:44.396Z,32.38
2022-09-10T00:28:21.308Z,31.17
2022-09-10T00:30:57.739Z,30.88
2022-09-10T00:33:51.023Z,28.35
2022-09-10T00:36:28.559Z,23.80
2022-09-10T00:54:26.743Z,29.77
2022-09-10T00:57:22.171Z,28.95
2022-09-10T01:10:53.023Z,28.45
2022-09-10T01:25:56.267Z,31.38
2022-09-10T01:51:48.316Z,27.80
2022-09-10T01:58:57.562Z,31.75
2022-09-10T02:05:55.250Z,34.90
2022-09-10T02:09:48.442Z,34.10
2022-09-10T02:16:53.384Z,31.15
2022-09-10T02:19:55.302Z,37.35
2022-09-10T02:23:47.673Z,35.00
2022-09-10T02:39:15.835Z,30.42
2022-09-10T02:49:12.899Z,30.88
2022-09-10T03:03:20.823Z,28.30
2022-09-10T03:14:21.142Z,30.35
2022-09-10T03:23:31.728Z,37.53
2022-09-10T03:39:21.661Z,29.80
2022-09-10T03:41:55.995Z,32.35
2022-09-10T03:45:37.538Z,33.55
2022-09-10T03:55:23.386Z,34.30
2022-09-10T04:04:19.721Z,35.63
2022-09-10T04:07:16.237Z,31.55
2022-09-10T04:10:20.302Z,47.40
2022-09-10T04:13:37.654Z,37.67
2022-09-10T04:17:08.259Z,35.22
2022-09-10T04:20:12.113Z,33.97
2022-09-10T04:22:45.521Z,32.50
2022-09-10T04:25:25.754Z,35.70
2022-09-10T04:28:12.907Z,30.40
2022-09-10T04:31:20.207Z,32.13
2022-09-10T04:34:19.873Z,31.95
2022-09-10T04:36:53.146Z,35.15
2022-09-10T04:43:19.735Z,30.00
2022-09-10T04:46:25.280Z,32.50
2022-09-10T04:53:45.271Z,29.42
2022-09-10T04:59:41.677Z,28.75
2022-09-10T05:06:22.993Z,33.90
2022-09-10T05:09:38.972Z,29.65
2022-09-10T05:19:42.407Z,28.25
2022-09-10T05:22:48.069Z,26.50
2022-09-10T05:25:41.658Z,28.58
2022-09-10T05:28:19.402Z,27.35
2022-09-10T05:34:47.040Z,29.08
2022-09-10T05:37:43.260Z,28.58
2022-09-10T05:40:45.304Z,31.05
2022-09-10T05:43:46.561Z,31.27
2022-09-10T05:46:38.860Z,31.40
2022-09-10T05:49:09.639Z,24.90
2022-09-10T05:51:37.987Z,27.55
2022-09-10T05:54:06.675Z,27.90
2022-09-10T05:56:37.776Z,30.15
2022-09-10T06:02:34.817Z,37.45
2022-09-10T06:05:35.303Z,30.90
2022-09-10T06:11:34.263Z,28.70
2022-09-10T06:14:38.389Z,37.55
2022-09-10T06:20:10.730Z,33.75
2022-09-10T06:23:03.438Z,31.20
2022-09-10T06:25:49.398Z,33.10
2022-09-10T06:41:09.221Z,38.47
2022-09-10T06:47:39.433Z,25.75
2022-09-10T06:57:10.894Z,30.85
2022-09-10T07:00:12.404Z,27.45
2022-09-10T07:06:09.432Z,29.77
2022-09-10T07:09:31.776Z,29.60
2022-09-10T07:13:01.067Z,30.60
2022-09-10T07:16:02.865Z,30.00
2022-09-10T07:28:14.240Z,31.45
2022-09-10T07:31:01.360Z,35.20
2022-09-10T07:36:48.686Z,26.98
2022-09-10T07:42:35.685Z,38.90
2022-09-10T07:48:08.194Z,33.05
2022-09-10T07:51:01.932Z,36.67
2022-09-10T07:53:32.789Z,37.33
2022-09-10T07:56:11.518Z,31.15
2022-09-10T07:58:46.171Z,30.33
2022-09-10T08:04:35.892Z,32.55
2022-09-10T08:14:35.262Z,27.67
2022-09-10T08:17:10.105Z,25.27
2022-09-10T08:23:30.262Z,27.08
2022-09-10T08:28:11.640Z,27.52
2022-09-10T08:29:34.191Z,27.13
2022-09-10T08:32:34.896Z,33.17
2022-09-10T08:35:28.474Z,34.83
2022-09-10T08:38:33.605Z,28.27
2022-09-10T08:41:32.038Z,27.95
2022-09-10T08:44:28.809Z,28.73
2022-09-10T09:01:56.298Z,25.33
2022-09-10T09:04:53.751Z,23.35
2022-09-10T09:11:29.476Z,30.48
2022-09-10T09:14:34.641Z,25.40
2022-09-10T09:17:36.607Z,28.38
2022-09-10T09:26:40.222Z,29.33
2022-09-10T09:29:30.143Z,27.85
2022-09-10T09:32:30.605Z,25.67
2022-09-10T09:35:27.263Z,32.83
2022-09-10T09:38:58.186Z,26.58
2022-09-10T09:42:28.474Z,36.40
2022-09-10T09:45:28.163Z,30.85
2022-09-10T09:48:25.617Z,26.15
2022-09-10T09:59:47.492Z,29.33
2022-09-10T10:02:36.414Z,31.25
2022-09-10T10:14:55.184Z,33.28
2022-09-10T10:18:01.650Z,29.40
2022-09-10T10:24:55.134Z,31.67
2022-09-10T10:27:59.065Z,32.70
2022-09-10T10:30:55.279Z,34.63
2022-09-10T10:37:50.173Z,34.42
2022-09-10T10:41:01.633Z,33.42
2022-09-10T10:43:51.490Z,36.08
2022-09-10T10:46:47.334Z,37.25
2022-09-10T10:49:49.382Z,35.70
2022-09-10T10:52:29.807Z,34.28
2022-09-10T10:55:22.474Z,36.53
2022-09-10T10:58:26.441Z,35.30
2022-09-10T11:01:25.240Z,43.08
2022-09-10T11:04:01.329Z,36.90
2022-09-10T11:06:54.740Z,34.88
2022-09-10T11:09:39.837Z,36.33
2022-09-10T11:12:17.711Z,38.90
2022-09-10T11:15:02.310Z,35.10
2022-09-10T11:18:01.159Z,32.78
2022-09-10T11:20:38.753Z,31.92
2022-09-10T11:23:19.265Z,31.52
2022-09-10T11:26:22.043Z,28.85
2022-09-10T11:29:00.425Z,32.25
2022-09-10T11:31:41.443Z,32.47
2022-09-10T11:37:52.935Z,25.42
2022-09-10T11:41:21.130Z,34.20
2022-09-10T11:49:47.725Z,29.13
2022-09-10T12:02:18.181Z,31.48
2022-09-10T12:02:43.877Z,28.23
2022-09-10T12:11:44.427Z,24.75
2022-09-10T12:14:22.951Z,28.17
2022-09-10T12:27:23.109Z,27.03
2022-09-10T12:37:32.711Z,31.33
2022-09-10T12:38:42.413Z,25.85
2022-09-10T12:41:17.614Z,29.40
2022-09-10T12:46:44.932Z,24.23
2022-09-10T12:49:15.304Z,28.60
2022-09-10T12:52:15.851Z,25.27
2022-09-10T12:55:22.220Z,25.17
2022-09-10T12:58:42.053Z,25.85
2022-09-10T13:05:43.609Z,32.80
2022-09-10T13:08:34.941Z,27.27
2022-09-10T13:14:14.264Z,27.92
2022-09-10T13:16:44.162Z,26.23
2022-09-10T13:19:43.841Z,25.65
2022-09-10T13:22:33.621Z,28.00
2022-09-10T13:25:33.773Z,29.15
2022-09-10T13:28:03.214Z,32.45
2022-09-10T13:30:35.255Z,26.50
2022-09-10T13:36:09.632Z,33.28
2022-09-10T13:39:03.475Z,26.02
2022-09-10T13:41:51.909Z,28.70
2022-09-10T13:44:26.554Z,25.33
2022-09-10T13:46:59.450Z,22.08
2022-09-10T13:49:47.048Z,22.20
2022-09-10T13:52:20.781Z,17.70
2022-09-10T13:54:58.274Z,22.73
2022-09-10T13:57:31.453Z,22.05
2022-09-10T14:00:09.678Z,21.95
2022-09-10T14:02:56.626Z,20.52
2022-09-10T14:05:29.336Z,22.20
2022-09-10T14:08:03.046Z,17.33
2022-09-10T14:10:49.484Z,20.40
2022-09-10T14:13:39.900Z,20.15
2022-09-10T14:16:13.149Z,20.20
2022-09-10T14:18:51.383Z,20.67
2022-09-10T14:21:27.943Z,20.15
2022-09-10T14:23:59.045Z,22.55
2022-09-10T14:29:26.129Z,22.42
2022-09-10T14:40:08.647Z,16.05
2022-09-10T14:42:46.939Z,17.52
2022-09-10T14:46:04.286Z,19.50
2022-09-10T14:49:05.578Z,16.65
2022-09-10T14:51:45.653Z,22.25
2022-09-10T14:54:15.463Z,20.08
2022-09-10T14:56:47.104Z,21.50
2022-09-10T14:59:29.409Z,21.58
2022-09-10T15:06:06.269Z,17.27
2022-09-10T15:12:13.241Z,17.73
2022-09-10T15:15:09.373Z,18.73
2022-09-10T15:20:35.002Z,19.70
2022-09-10T15:23:07.787Z,22.48
2022-09-10T15:25:38.350Z,28.05
2022-09-10T15:28:08.443Z,27.60
2022-09-10T15:30:40.511Z,17.00
2022-09-10T15:33:13.165Z,15.77
2022-09-10T15:35:44.392Z,17.52
2022-09-10T15:38:28.901Z,16.38
2022-09-10T15:41:12.653Z,17.45
2022-09-10T15:43:46.818Z,12.27
2022-09-10T15:46:17.393Z,23.20
2022-09-10T15:48:56.504Z,18.02
2022-09-10T15:51:33.405Z,17.13
2022-09-10T15:54:08.216Z,22.77
2022-09-10T15:56:37.609Z,17.48
2022-09-10T16:02:07.983Z,15.10
2022-09-10T16:04:38.526Z,15.32
2022-09-10T16:07:38.507Z,13.60
2022-09-10T16:16:37.345Z,13.93
2022-09-10T16:19:35.622Z,14.18
2022-09-10T16:25:42.127Z,12.23
2022-09-10T16:29:01.468Z,13.43
2022-09-10T17:27:36.705Z,11.20
2022-09-10T17:30:06.711Z,12.48
2022-09-10T17:32:35.380Z,9.85
2022-09-10T17:35:03.721Z,11.55
2022-09-10T17:37:33.366Z,18.33
2022-09-10T17:40:01.627Z,16.25
2022-09-10T17:42:29.958Z,14.00
2022-09-10T17:45:05.520Z,24.13
2022-09-10T17:47:37.416Z,21.95
2022-09-10T17:50:05.932Z,19.17
2022-09-10T17:52:36.857Z,24.27
2022-09-10T17:55:05.803Z,22.60
2022-09-10T17:57:45.195Z,23.23
2022-09-10T18:00:25.728Z,25.15
2022-09-10T18:03:02.728Z,21.00
2022-09-10T18:05:33.370Z,24.80
2022-09-10T18:08:01.820Z,24.92
2022-09-10T18:10:30.080Z,22.05
2022-09-10T18:13:00.427Z,15.38
2022-09-10T18:15:30.451Z,22.92
2022-09-10T18:18:02.369Z,27.35
2022-09-10T18:20:31.376Z,32.58
2022-09-10T18:23:01.533Z,21.23
2022-09-10T18:25:33.844Z,26.10
2022-09-10T18:28:05.109Z,26.20
